Slayton, MN

4:21 PM CST on February 05, 2016 (GMT -0600)
Slayton | | Change Station
CLOSE
Current Station
Airport
Location: Slayton,
Elevation: 1624 ft
Nearby Weather Stations
Active Advisory: Blizzard Watch

Elev 1624 ft 43.99 °N, 95.78 °W | Updated 6 minutes ago

Light Snow
Light Snow
27 °F
Feels Like 15 °F
N
15
Wind Variable Wind from SSW

Today
High -- | Low -- °F
--% Chance of Precip.
Yesterday
High -- | Low -- °F
Precip. -- in
Pressure 30.14 in
Visibility 1.0 miles
Clouds Overcast 800 ft
Windchill 15 °F
Dew Point 26 °F
Humidity 99%
Rainfall 0.00 in
Snow Depth Not available.
7:36 AM 5:38 PM
Waning Crescent, 9% visible
METAR KDVP 052215Z AUTO 21013KT 1SM -SN OVC008 M03/M03 A3014 RMK AO2 T10301032
Pressure 30.14 in
Visibility 1.0 miles
Clouds Overcast 800 ft
Windchill 15 °F
Dew Point 26 °F
Humidity 99%
Rainfall 0.00 in
Snow Depth Not available.
7:36 AM 5:38 PM
Waning Crescent, 9% visible
METAR KDVP 052215Z AUTO 21013KT 1SM -SN OVC008 M03/M03 A3014 RMK AO2 T10301032

10-Day Weather Forecast

Almanac

Astronomy

Feb. 05, 2016 Rise Set
Actual Time
Civil Twilight
Nautical Twilight
Astronomical Twilight
Moon
Length of Visible Light
Length of Day
Tomorrow will be .
, % of the Moon is Illuminated

Today's Extremes

State Highs State Lows

Community

WunderPhotos

Upload Photos

1,890,878 photos uploaded!

WunderBlog® & News

Nearby

Air Quality

  Air Quality AQ Index Pollutant
Not available.

Snow Depth

Station Depth Elevation

Earthquake Activity

City Distance Mag. Time & Date
Minimum magnitude displayed is 2.5.

Coastal Water Temperatures

Place Temperature

Stations

Nearby Weather Stations

Station Location Temp. Windchill Dew Point Humidity Wind Precip. Elev Updated Type
                   

Watches & Warnings

Blizzard Watch
Issued: 3:21 PM CST Feb. 5, 2016 – National Weather Service

... Blizzard watch in effect from Sunday afternoon through late
Sunday night...

The National Weather Service in Sioux Falls has issued a blizzard
watch... which is in effect from Sunday afternoon through late
Sunday night.

* Timing... blizzard conditions are possible from Sunday afternoon
through late Sunday night due to a combination of strong winds
and falling snow.

* Winds / visibilities... winds gusting as high as 50 mph could
cause whiteout conditions in blowing snow. Significant drifting
of the snow that fell earlier in the week is likely.

* Snow accumulations... total snow accumulations of up to 1 inch
are possible... but higher amounts may be possible in stronger
snow showers.

* Impacts... travel could become very difficult at times due to
reduced visibility and blowing snow over roadways. Rural and
open areas will have the highest impact.

Precautionary/preparedness actions...

A blizzard watch means there is a potential for falling and/or
blowing snow with strong winds and extremely poor visibilities.
This can lead to whiteout conditions and make travel very
dangerous.


Dux